Time;durP1;ratioP1;P1;durP2;ratioP2;P2;SDS_P1;SDS_P2;PMS_P1;PMS_P2;Temp;Humidity;BMP_temperature;BMP_pressure;BME280_temperature;BME280_humidity;BME280_pressure;Samples;Min_cycle;Max_cycle;Signal;HPM_P1;HPM_P2
2022/09/29 00:00:12;;;;;;;7.82;4.10;;;;;;;10.39;100.00;90951.44;5036026;28;20035;-74
2022/09/29 00:02:38;;;;;;;6.65;3.05;;;;;;;10.40;100.00;90951.13;5009963;28;20037;-74
2022/09/29 00:05:04;;;;;;;9.32;3.45;;;;;;;10.41;100.00;90950.03;5027861;28;20304;-74
2022/09/29 00:07:31;;;;;;;6.93;3.50;;;;;;;10.42;100.00;90956.00;4994563;28;20125;-74
2022/09/29 00:09:57;;;;;;;8.15;3.00;;;;;;;10.46;100.00;90954.28;5021750;28;20044;-74
2022/09/29 00:12:23;;;;;;;7.93;2.95;;;;;;;10.48;100.00;90952.13;5041212;28;20037;-73
2022/09/29 00:14:49;;;;;;;9.68;3.17;;;;;;;10.51;100.00;90937.63;5011726;28;20033;-73
2022/09/29 00:17:15;;;;;;;8.73;2.90;;;;;;;10.50;100.00;90936.09;5028955;28;20485;-74
2022/09/29 00:19:40;;;;;;;5.65;2.95;;;;;;;10.49;99.63;90927.50;5029817;28;20144;-74
2022/09/29 00:22:06;;;;;;;9.65;3.45;;;;;;;10.50;98.89;90926.41;5042583;28;20128;-74
2022/09/29 00:24:33;;;;;;;8.15;3.10;;;;;;;10.51;98.91;90925.28;5029281;28;20029;-74
2022/09/29 00:27:00;;;;;;;6.32;2.80;;;;;;;10.52;99.30;90920.84;5031633;28;20475;-74
2022/09/29 00:29:25;;;;;;;9.68;2.95;;;;;;;10.52;99.12;90921.59;5027210;28;20029;-74
2022/09/29 00:31:51;;;;;;;9.27;3.10;;;;;;;10.50;99.02;90913.31;5029166;28;20039;-74
2022/09/29 00:34:16;;;;;;;9.10;3.05;;;;;;;10.49;99.38;90909.19;5032990;28;20037;-74
2022/09/29 00:36:42;;;;;;;4.82;2.60;;;;;;;10.49;99.14;90916.25;5032877;28;20061;-74
2022/09/29 00:39:08;;;;;;;6.53;3.17;;;;;;;10.51;98.66;90920.06;5030322;28;20045;-74
2022/09/29 00:41:35;;;;;;;10.07;3.40;;;;;;;10.50;99.06;90913.31;5011916;28;20411;-74
2022/09/29 00:44:02;;;;;;;6.22;3.45;;;;;;;10.49;98.75;90908.41;5029634;28;20021;-73
2022/09/29 00:46:40;;;;;;;8.10;3.38;;;;;;;10.48;99.51;90914.72;5030223;28;20033;-73
2022/09/29 00:49:30;;;;;;;7.03;3.30;;;;;;;10.51;99.41;90914.84;5027949;28;20045;-74
2022/09/29 00:52:14;;;;;;;9.80;3.40;;;;;;;10.46;100.00;90909.81;5045821;28;20041;-73
2022/09/29 00:54:49;;;;;;;6.60;3.00;;;;;;;10.41;100.00;90899.56;5033035;28;20053;-74
2022/09/29 00:57:19;;;;;;;8.40;3.60;;;;;;;10.39;100.00;90893.88;5030848;28;20025;-73
2022/09/29 00:59:58;;;;;;;6.45;3.42;;;;;;;10.38;100.00;90897.56;5032432;28;20036;-73
2022/09/29 01:02:25;;;;;;;9.75;3.85;;;;;;;10.37;100.00;90899.44;5014504;28;20072;-74
2022/09/29 01:04:53;;;;;;;9.35;3.40;;;;;;;10.34;100.00;90901.94;5031971;28;20036;-73
2022/09/29 01:07:23;;;;;;;6.05;3.00;;;;;;;10.30;100.00;90899.19;5031494;28;20112;-74
2022/09/29 01:09:52;;;;;;;5.88;3.13;;;;;;;10.28;100.00;90903.94;5028626;28;20041;-73
2022/09/29 01:12:19;;;;;;;10.98;3.13;;;;;;;10.27;100.00;90896.41;5028377;28;20030;-73
2022/09/29 01:14:46;;;;;;;7.88;2.90;;;;;;;10.27;100.00;90888.56;5027878;28;20107;-74
2022/09/29 01:17:12;;;;;;;7.13;2.90;;;;;;;10.26;100.00;90887.81;5030564;28;20067;-74
2022/09/29 01:19:43;;;;;;;10.40;3.10;;;;;;;10.27;99.49;90889.34;5046385;28;20033;-73
2022/09/29 01:22:52;;;;;;;8.10;3.50;;;;;;;10.27;98.94;90883.34;5023642;28;20030;-73
2022/09/29 01:25:42;;;;;;;8.73;3.20;;;;;;;10.28;99.48;90887.50;5040701;28;20045;-73
2022/09/29 01:28:07;;;;;;;7.80;3.13;;;;;;;10.28;99.33;90884.88;5031721;28;20041;-73
2022/09/29 01:30:57;;;;;;;10.93;4.60;;;;;;;10.27;98.73;90884.13;5032989;28;20033;-74
2022/09/29 01:33:44;;;;;;;9.60;3.40;;;;;;;10.26;99.15;90882.59;5032786;28;20123;-74
2022/09/29 01:36:29;;;;;;;6.00;3.10;;;;;;;10.26;99.58;90889.69;5043667;28;20034;-75
2022/09/29 01:39:29;;;;;;;8.25;2.95;;;;;;;10.24;100.00;90879.53;5014408;28;20109;-74
2022/09/29 01:42:04;;;;;;;8.38;3.50;;;;;;;10.26;100.00;90873.97;5002529;28;20411;-74
2022/09/29 01:44:36;;;;;;;9.32;3.65;;;;;;;10.27;100.00;90870.25;5031654;28;20040;-74
2022/09/29 01:47:10;;;;;;;9.95;3.78;;;;;;;10.26;100.00;90868.75;5032225;28;20136;-74
2022/09/29 01:49:42;;;;;;;7.97;2.90;;;;;;;10.30;100.00;90870.44;5029396;28;20041;-74
2022/09/29 01:52:16;;;;;;;8.38;3.47;;;;;;;10.26;100.00;90863.53;5031048;28;20105;-74
2022/09/29 01:54:47;;;;;;;8.70;3.40;;;;;;;10.28;100.00;90869.94;5032974;28;20068;-74
2022/09/29 01:57:24;;;;;;;9.85;3.22;;;;;;;10.25;100.00;90873.22;5033267;28;20029;-74
2022/09/29 02:00:07;;;;;;;8.25;3.03;;;;;;;10.23;100.00;90866.78;5033721;28;20034;-73
2022/09/29 02:02:46;;;;;;;8.15;3.58;;;;;;;10.21;100.00;90865.25;5013676;28;20045;-73
2022/09/29 02:05:37;;;;;;;5.05;3.03;;;;;;;10.21;100.00;90875.72;5033638;28;20043;-74
2022/09/29 02:08:17;;;;;;;6.90;3.28;;;;;;;10.23;100.00;90872.03;5023711;28;20038;-74
2022/09/29 02:10:49;;;;;;;6.63;3.60;;;;;;;10.24;100.00;90865.69;5014385;28;20029;-74
2022/09/29 02:13:17;;;;;;;7.88;3.65;;;;;;;10.24;100.00;90860.47;5028638;28;20034;-74
2022/09/29 02:15:47;;;;;;;7.82;3.55;;;;;;;10.27;100.00;90867.66;5031218;28;20033;-73
2022/09/29 02:18:20;;;;;;;6.10;3.30;;;;;;;10.26;100.00;90866.13;5042983;28;20036;-73
2022/09/29 02:20:48;;;;;;;9.90;3.17;;;;;;;10.25;100.00;90870.59;5029907;28;21674;-73
2022/09/29 02:23:14;;;;;;;11.35;3.22;;;;;;;10.27;100.00;90868.44;5019152;28;20080;-73
2022/09/29 02:25:40;;;;;;;8.77;3.38;;;;;;;10.31;100.00;90860.72;5032320;28;20464;-73
2022/09/29 02:28:07;;;;;;;8.30;3.40;;;;;;;10.28;100.00;90856.88;5030949;28;20029;-73
2022/09/29 02:30:34;;;;;;;6.03;2.88;;;;;;;10.31;97.59;90855.50;5009749;28;20427;-73
2022/09/29 02:32:59;;;;;;;9.52;3.17;;;;;;;10.26;97.69;90855.69;5019513;28;20507;-73
2022/09/29 02:35:44;;;;;;;6.20;3.05;;;;;;;10.21;100.00;90867.09;5029603;28;20096;-73
2022/09/29 02:38:35;;;;;;;9.40;3.10;;;;;;;10.15;100.00;90861.28;5020294;28;20033;-74
2022/09/29 02:41:06;;;;;;;8.60;3.05;;;;;;;10.15;100.00;90871.75;5014061;28;20033;-73
2022/09/29 02:43:54;;;;;;;6.07;2.90;;;;;;;10.15;100.00;90863.16;5026836;28;20033;-73
2022/09/29 02:46:51;;;;;;;9.77;2.97;;;;;;;10.16;100.00;90860.22;5040212;28;20033;-73
2022/09/29 02:49:27;;;;;;;7.13;2.97;;;;;;;10.20;100.00;90866.34;5032159;28;20033;-73
2022/09/29 02:52:25;;;;;;;8.43;3.30;;;;;;;10.21;100.00;90861.88;5028549;28;20037;-73
2022/09/29 02:55:17;;;;;;;6.55;3.20;;;;;;;10.22;100.00;90858.16;5026784;28;20411;-73
2022/09/29 02:58:00;;;;;;;10.37;3.03;;;;;;;10.23;100.00;90845.88;4993036;28;20038;-74
2022/09/29 03:00:27;;;;;;;6.72;3.25;;;;;;;10.21;100.00;90844.31;5024248;28;20033;-74
2022/09/29 03:02:52;;;;;;;8.95;3.30;;;;;;;10.21;100.00;90854.03;5019193;28;20034;-74
2022/09/29 03:05:21;;;;;;;6.07;3.28;;;;;;;10.14;100.00;90851.94;5029214;28;20033;-75
2022/09/29 03:07:47;;;;;;;8.43;2.97;;;;;;;10.13;100.00;90855.66;5044145;28;20440;-74
2022/09/29 03:10:15;;;;;;;4.82;2.83;;;;;;;10.25;99.54;90860.16;5031868;28;20061;-74
2022/09/29 03:12:40;;;;;;;5.63;2.80;;;;;;;10.23;100.00;90866.78;5031315;28;20029;-74
2022/09/29 03:15:07;;;;;;;6.25;2.95;;;;;;;10.14;100.00;90865.00;5029378;28;20045;-74
2022/09/29 03:17:33;;;;;;;7.40;3.38;;;;;;;10.08;100.00;90860.31;5029544;28;20422;-74
2022/09/29 03:19:59;;;;;;;6.10;2.92;;;;;;;10.05;100.00;90856.50;5029625;28;20514;-75
2022/09/29 03:22:25;;;;;;;6.88;3.00;;;;;;;10.05;100.00;90855.72;5028598;28;20128;-75
2022/09/29 03:24:50;;;;;;;8.93;2.90;;;;;;;10.05;100.00;90846.03;5029784;28;20041;-75
2022/09/29 03:27:17;;;;;;;6.72;3.05;;;;;;;10.03;100.00;90853.44;5012087;28;20060;-75
2022/09/29 03:29:42;;;;;;;8.07;2.72;;;;;;;10.02;100.00;90838.84;5014369;28;20031;-75
2022/09/29 03:32:08;;;;;;;13.68;3.10;;;;;;;10.02;100.00;90838.84;5030262;28;20033;-75
2022/09/29 03:34:34;;;;;;;8.05;3.40;;;;;;;10.03;100.00;90842.22;5029236;28;20042;-74
2022/09/29 03:37:00;;;;;;;7.07;2.78;;;;;;;10.01;100.00;90845.16;5038703;28;20047;-75
2022/09/29 03:39:26;;;;;;;5.63;2.90;;;;;;;10.01;100.00;90838.06;5031419;28;20419;-75
2022/09/29 03:41:51;;;;;;;6.30;3.03;;;;;;;10.05;99.96;90846.03;5009541;28;20041;-74
2022/09/29 03:44:17;;;;;;;6.32;2.97;;;;;;;10.08;99.60;90852.47;5013171;28;20049;-74
2022/09/29 03:46:43;;;;;;;5.72;2.20;;;;;;;10.30;92.96;90856.59;5007339;28;20037;-73
2022/09/29 03:49:10;;;;;;;4.47;2.25;;;;;;;10.10;94.18;90858.13;5029471;28;20107;-74
2022/09/29 03:51:36;;;;;;;5.10;2.20;;;;;;;10.00;95.32;90854.09;5027490;28;20033;-74
2022/09/29 03:54:02;;;;;;;7.13;2.13;;;;;;;9.94;95.89;90860.59;5046407;28;20054;-74
2022/09/29 03:56:28;;;;;;;8.48;2.80;;;;;;;9.90;97.39;90864.91;5031924;28;20034;-74
2022/09/29 03:58:54;;;;;;;9.30;2.80;;;;;;;9.87;98.56;90863.72;5027919;28;20069;-74
2022/09/29 04:01:19;;;;;;;6.38;2.58;;;;;;;9.86;99.04;90864.03;5033184;28;20132;-74
2022/09/29 04:03:45;;;;;;;5.97;2.40;;;;;;;9.86;99.43;90866.66;5029439;28;20037;-74
2022/09/29 04:06:11;;;;;;;4.32;2.13;;;;;;;9.87;98.47;90861.09;5032034;28;20056;-74
2022/09/29 04:08:37;;;;;;;7.15;2.60;;;;;;;9.88;99.13;90861.88;5017764;28;20044;-73
2022/09/29 04:11:04;;;;;;;4.80;2.40;;;;;;;9.89;99.57;90866.78;5041758;28;20034;-74
2022/09/29 04:13:29;;;;;;;7.75;2.30;;;;;;;9.89;99.38;90866.78;5030485;28;20134;-74
2022/09/29 04:16:01;;;;;;;6.70;4.45;;;;;;;9.92;99.87;90870.59;5019625;28;20496;-74
2022/09/29 04:18:27;;;;;;;5.60;2.50;;;;;;;9.94;99.79;90863.97;5019212;28;20065;-73
2022/09/29 04:20:53;;;;;;;3.78;2.20;;;;;;;9.96;99.01;90863.66;5029039;28;20490;-73
2022/09/29 04:23:19;;;;;;;5.60;2.22;;;;;;;9.94;98.11;90876.28;5026526;28;20048;-73
2022/09/29 04:25:45;;;;;;;4.15;2.30;;;;;;;9.93;99.40;90872.13;5027149;28;20164;-73
2022/09/29 04:28:11;;;;;;;5.93;2.50;;;;;;;9.92;100.00;90873.97;5043103;28;20037;-73
2022/09/29 04:30:36;;;;;;;7.60;2.83;;;;;;;9.92;100.00;90876.59;5029773;28;20025;-73
2022/09/29 04:33:02;;;;;;;4.93;2.40;;;;;;;9.92;100.00;90873.22;5022231;28;20651;-73
2022/09/29 04:35:28;;;;;;;7.07;2.75;;;;;;;9.95;100.00;90873.34;5022084;28;20044;-73
2022/09/29 04:37:56;;;;;;;6.18;2.72;;;;;;;9.91;100.00;90874.31;5030987;28;20037;-73
2022/09/29 04:40:23;;;;;;;8.80;3.03;;;;;;;9.90;100.00;90876.13;5031714;28;20033;-74
2022/09/29 04:42:48;;;;;;;6.10;2.90;;;;;;;9.88;100.00;90874.94;5028780;28;20120;-73
2022/09/29 04:45:14;;;;;;;12.88;3.45;;;;;;;9.89;100.00;90879.09;5027490;28;20124;-75
2022/09/29 04:47:40;;;;;;;6.97;3.20;;;;;;;9.90;100.00;90878.75;5029515;28;20380;-73
2022/09/29 04:50:06;;;;;;;9.00;4.43;;;;;;;9.92;100.00;90878.44;5029268;28;20067;-73
2022/09/29 04:52:32;;;;;;;6.78;3.10;;;;;;;9.92;100.00;90883.66;5032833;28;20068;-73
2022/09/29 04:54:58;;;;;;;9.45;3.10;;;;;;;9.92;100.00;90878.44;5003029;28;20593;-75
2022/09/29 04:57:23;;;;;;;7.57;3.25;;;;;;;9.94;100.00;90887.47;5029337;28;20037;-76
2022/09/29 04:59:50;;;;;;;7.72;3.20;;;;;;;9.97;100.00;90886.06;5034066;28;20525;-76
2022/09/29 05:02:18;;;;;;;6.13;2.92;;;;;;;10.07;100.00;90892.78;5026802;28;20056;-75
2022/09/29 05:04:44;;;;;;;5.57;2.55;;;;;;;10.20;100.00;90891.75;5023658;28;20041;-75
2022/09/29 05:07:10;;;;;;;5.35;2.83;;;;;;;10.07;99.38;90895.38;5026873;28;20048;-76
2022/09/29 05:09:36;;;;;;;10.15;2.60;;;;;;;9.96;99.62;90889.78;5035915;28;20037;-73
2022/09/29 05:12:02;;;;;;;4.45;2.40;;;;;;;9.93;100.00;90888.59;5029935;28;20107;-75
2022/09/29 05:14:27;;;;;;;6.80;2.58;;;;;;;9.91;100.00;90887.38;5004622;28;20069;-76
2022/09/29 05:16:54;;;;;;;6.07;2.40;;;;;;;9.93;100.00;90887.78;5026925;28;20029;-75
2022/09/29 05:19:20;;;;;;;4.40;2.58;;;;;;;9.93;100.00;90890.41;5025765;28;20120;-76
2022/09/29 05:21:45;;;;;;;5.45;2.45;;;;;;;9.95;100.00;90885.63;5029838;28;20171;-73
2022/09/29 05:24:11;;;;;;;5.63;2.50;;;;;;;9.97;100.00;90891.31;5011894;28;20069;-76
2022/09/29 05:26:37;;;;;;;7.18;2.55;;;;;;;9.96;100.00;90890.53;5043207;28;20491;-76
2022/09/29 05:29:03;;;;;;;6.95;2.72;;;;;;;9.98;100.00;90890.22;5012560;28;20029;-76
2022/09/29 05:31:28;;;;;;;8.88;3.20;;;;;;;10.00;100.00;90904.50;5030393;28;20037;-77
2022/09/29 05:33:55;;;;;;;6.82;3.13;;;;;;;10.03;100.00;90903.09;5029864;28;20029;-76
2022/09/29 05:36:21;;;;;;;6.93;3.00;;;;;;;10.05;100.00;90906.16;5010861;28;20042;-75
2022/09/29 05:38:47;;;;;;;7.50;3.30;;;;;;;10.10;100.00;90911.19;5008447;28;20050;-76
2022/09/29 05:41:21;;;;;;;6.68;3.00;;;;;;;10.11;100.00;90907.50;5028703;28;20034;-76
2022/09/29 05:43:47;;;;;;;7.55;3.38;;;;;;;10.12;100.00;90908.25;5030108;28;20061;-76
2022/09/29 05:46:15;;;;;;;10.70;3.10;;;;;;;10.16;100.00;90907.28;5029147;28;20026;-75
2022/09/29 05:48:45;;;;;;;6.82;3.00;;;;;;;10.18;100.00;90907.75;5028252;28;20056;-76
2022/09/29 05:51:13;;;;;;;9.95;2.80;;;;;;;10.21;100.00;90909.69;5005678;28;20052;-76
2022/09/29 05:53:39;;;;;;;6.93;2.55;;;;;;;10.23;100.00;90913.88;5028772;28;20499;-76
2022/09/29 05:56:20;;;;;;;7.75;2.90;;;;;;;10.23;100.00;90913.88;5021061;28;20578;-76
2022/09/29 05:58:45;;;;;;;8.50;2.85;;;;;;;10.25;100.00;90916.94;5029734;28;20072;-75
2022/09/29 06:01:14;;;;;;;10.27;2.80;;;;;;;10.26;100.00;90919.19;5021781;28;20448;-75
2022/09/29 06:03:41;;;;;;;11.02;2.90;;;;;;;10.28;100.00;90916.28;5034716;28;20493;-75
2022/09/29 06:06:12;;;;;;;5.95;2.67;;;;;;;10.28;100.00;90916.28;5028602;28;20064;-75
2022/09/29 06:08:39;;;;;;;5.47;2.60;;;;;;;10.30;100.00;90914.13;5035778;28;20041;-75
2022/09/29 06:11:07;;;;;;;8.32;2.85;;;;;;;10.33;100.00;90923.94;5017481;28;20045;-75
2022/09/29 06:13:37;;;;;;;10.38;3.10;;;;;;;10.33;100.00;90924.69;5033540;28;20447;-75
2022/09/29 06:16:03;;;;;;;7.70;3.03;;;;;;;10.34;100.00;90928.84;5031447;28;20480;-75
2022/09/29 06:18:29;;;;;;;7.10;2.58;;;;;;;10.36;100.00;90923.31;5011098;28;20092;-76
2022/09/29 06:21:09;;;;;;;9.32;2.78;;;;;;;10.37;100.00;90922.97;5032728;28;20510;-75
2022/09/29 06:23:35;;;;;;;7.13;3.17;;;;;;;10.39;100.00;90920.03;5030732;28;20132;-75
2022/09/29 06:26:03;;;;;;;8.27;2.75;;;;;;;10.40;100.00;90918.94;5043928;28;20124;-75
2022/09/29 06:28:30;;;;;;;20.30;3.40;;;;;;;10.42;100.00;90927.22;5033012;28;20457;-76
2022/09/29 06:31:02;;;;;;;7.75;2.80;;;;;;;10.42;100.00;90911.53;5034602;28;20491;-75
2022/09/29 06:33:29;;;;;;;8.90;2.72;;;;;;;10.47;100.00;90913.97;5038079;28;20049;-75
2022/09/29 06:38:39;;;;;;;7.82;3.17;;;;;;;10.56;100.00;90914.66;5033673;28;20077;-76
2022/09/29 06:41:06;;;;;;;10.63;3.85;;;;;;;10.60;100.00;90918.16;5033387;28;20119;-75
2022/09/29 06:43:31;;;;;;;6.82;3.53;;;;;;;10.67;100.00;90912.34;5034261;28;20115;-75
2022/09/29 06:45:57;;;;;;;8.73;3.45;;;;;;;10.73;100.00;90913.69;5047641;28;20486;-76
2022/09/29 06:48:22;;;;;;;10.35;2.70;;;;;;;10.75;100.00;90908.91;5053404;28;20032;-72
2022/09/29 06:50:48;;;;;;;10.43;3.03;;;;;;;10.80;100.00;90906.06;5047082;28;20048;-75
2022/09/29 06:53:13;;;;;;;8.43;3.05;;;;;;;10.85;100.00;90905.09;5041980;28;20037;-75
2022/09/29 06:55:39;;;;;;;10.90;3.17;;;;;;;10.90;100.00;90910.13;5037370;28;20052;-75
2022/09/29 06:58:06;;;;;;;7.63;3.30;;;;;;;10.95;100.00;90907.28;5034483;28;20483;-75
2022/09/29 07:00:32;;;;;;;9.48;3.45;;;;;;;10.98;100.00;90909.25;5026833;28;20044;-75
2022/09/29 07:02:58;;;;;;;13.25;3.60;;;;;;;11.03;100.00;90906.44;5036166;28;20041;-75
2022/09/29 07:05:25;;;;;;;9.60;3.85;;;;;;;11.13;100.00;90907.09;5049299;28;20376;-75
2022/09/29 07:07:50;;;;;;;13.57;4.25;;;;;;;11.19;98.47;90911.78;5051167;28;20039;-75
2022/09/29 07:10:16;;;;;;;11.00;4.10;;;;;;;11.22;97.20;90910.34;5043583;28;20124;-76
2022/09/29 07:12:45;;;;;;;11.40;4.28;;;;;;;11.27;96.89;90907.50;5046003;28;20033;-75
2022/09/29 07:15:12;;;;;;;12.55;4.10;;;;;;;11.33;95.72;90913.31;5046477;28;20533;-75
2022/09/29 07:17:38;;;;;;;12.20;3.70;;;;;;;11.51;92.75;90911.22;5049703;28;20495;-75
2022/09/29 07:20:04;;;;;;;8.15;3.65;;;;;;;11.53;95.33;90920.28;5034183;28;20041;-75
2022/09/29 07:22:29;;;;;;;13.25;4.05;;;;;;;11.50;93.33;90918.31;5034128;28;20033;-76
2022/09/29 07:24:55;;;;;;;11.18;3.72;;;;;;;11.71;91.61;90910.31;5029788;28;20045;-75
2022/09/29 07:27:23;;;;;;;10.75;3.08;;;;;;;11.63;95.10;90922.44;5014701;28;20068;-75
2022/09/29 07:29:52;;;;;;;7.38;3.55;;;;;;;11.39;96.23;90915.38;5016890;28;20095;-76
2022/09/29 07:32:18;;;;;;;7.70;3.05;;;;;;;11.40;97.89;90921.38;5031110;28;20055;-75
2022/09/29 07:34:44;;;;;;;9.15;3.42;;;;;;;11.43;98.25;90926.72;5022273;28;20176;-76
2022/09/29 07:37:11;;;;;;;18.60;4.30;;;;;;;11.43;91.24;90926.72;5036980;28;20521;-76
2022/09/29 07:39:36;;;;;;;10.15;3.60;;;;;;;11.41;91.48;90921.03;5040666;28;20029;-75
2022/09/29 07:42:02;;;;;;;7.82;3.60;;;;;;;11.42;91.24;90919.94;5037234;28;20046;-75
2022/09/29 07:44:30;;;;;;;8.90;3.55;;;;;;;11.39;91.13;90915.38;5034422;28;20046;-75
2022/09/29 07:46:56;;;;;;;6.88;3.60;;;;;;;11.53;90.36;90924.72;5035950;28;20029;-74
2022/09/29 07:49:22;;;;;;;10.75;3.22;;;;;;;11.64;90.10;90929.22;5034977;28;20042;-75
2022/09/29 07:51:47;;;;;;;8.70;3.65;;;;;;;11.51;90.55;90927.69;5042243;28;20045;-75
2022/09/29 07:54:13;;;;;;;7.90;3.42;;;;;;;11.51;91.46;90934.81;5033798;28;20450;-75
2022/09/29 07:56:38;;;;;;;8.68;3.30;;;;;;;11.38;92.28;90934.81;5021349;28;20030;-75
2022/09/29 07:59:04;;;;;;;9.40;3.28;;;;;;;11.55;90.37;90933.03;5028577;28;20041;-75
2022/09/29 08:01:30;;;;;;;8.35;3.33;;;;;;;11.60;91.47;90940.69;5042259;28;20075;-75
2022/09/29 08:03:56;;;;;;;11.65;3.40;;;;;;;11.60;92.52;90935.44;5027428;28;20048;-76
2022/09/29 08:06:24;;;;;;;5.63;3.45;;;;;;;11.57;91.42;90941.34;5037760;28;20033;-75
2022/09/29 08:08:50;;;;;;;6.57;3.53;;;;;;;11.60;91.87;90941.44;5008734;28;20033;-75
2022/09/29 08:11:21;;;;;;;8.48;3.65;;;;;;;11.61;91.96;90945.59;5040655;28;20036;-76
2022/09/29 08:13:52;;;;;;;9.10;3.60;;;;;;;11.61;90.65;90948.22;5049775;28;20040;-76
2022/09/29 08:16:18;;;;;;;7.35;3.70;;;;;;;11.58;90.81;90951.50;5038681;28;20031;-75
2022/09/29 08:18:44;;;;;;;9.98;3.95;;;;;;;11.61;91.43;90952.69;5034509;28;20029;-74
2022/09/29 08:21:11;;;;;;;9.93;4.05;;;;;;;11.57;89.84;90954.44;5029056;28;20052;-76
2022/09/29 08:23:39;;;;;;;10.98;3.80;;;;;;;11.56;91.10;90950.31;5029671;28;20534;-76
2022/09/29 08:26:10;;;;;;;8.65;3.60;;;;;;;11.78;90.29;90951.69;5045569;28;20025;-76
2022/09/29 08:28:37;;;;;;;8.60;3.72;;;;;;;11.70;90.14;90950.72;5042543;28;20042;-75
2022/09/29 08:31:07;;;;;;;7.68;3.55;;;;;;;11.54;91.08;90961.09;5033932;28;20088;-76
2022/09/29 08:33:33;;;;;;;6.82;3.45;;;;;;;11.48;92.92;90956.41;5013252;28;20572;-76
2022/09/29 08:36:13;;;;;;;7.80;3.30;;;;;;;11.54;96.46;90965.59;5029070;28;20483;-76
2022/09/29 08:38:41;;;;;;;9.30;3.65;;;;;;;11.37;100.00;90963.94;5048530;28;20032;-76
2022/09/29 08:41:38;;;;;;;9.05;3.90;;;;;;;11.31;100.00;90966.03;5029808;28;20026;-78
2022/09/29 08:44:25;;;;;;;6.28;3.78;;;;;;;11.27;98.79;90970.38;5049264;28;20058;-75
2022/09/29 08:47:00;;;;;;;7.00;3.95;;;;;;;11.21;98.99;90963.81;5029586;28;20079;-80
2022/09/29 08:49:28;;;;;;;9.35;4.18;;;;;;;11.19;98.06;90973.84;5024520;28;20033;-79
2022/09/29 08:52:00;;;;;;;10.23;4.30;;;;;;;11.19;97.91;90960.75;5045964;28;20487;-80
2022/09/29 08:54:40;;;;;;;10.95;4.15;;;;;;;11.27;98.72;90965.13;5041233;28;20037;-80
2022/09/29 08:57:16;;;;;;;9.50;4.50;;;;;;;11.41;100.00;90962.19;5015524;28;20032;-79
2022/09/29 08:59:42;;;;;;;12.82;5.55;;;;;;;11.52;100.00;90965.16;5039890;28;20182;-80
2022/09/29 09:02:26;;;;;;;12.82;5.03;;;;;;;11.54;98.83;90968.97;5049416;28;20048;-79
2022/09/29 09:05:18;;;;;;;13.82;5.68;;;;;;;11.54;98.36;90973.44;5034133;28;20634;-80
2022/09/29 09:08:12;;;;;;;13.30;6.30;;;;;;;11.55;100.00;90974.97;5027855;28;20055;-79
2022/09/29 09:10:47;;;;;;;9.50;5.78;;;;;;;11.54;99.97;90970.81;5040771;28;20034;-81
2022/09/29 09:13:12;;;;;;;13.38;6.28;;;;;;;11.57;99.64;90970.16;5041855;28;20029;-80
2022/09/29 09:16:02;;;;;;;11.57;5.07;;;;;;;11.57;100.00;90973.56;5053566;28;20083;-80
2022/09/29 09:18:37;;;;;;;14.98;6.38;;;;;;;11.54;100.00;90982.06;5046050;28;20391;-79
2022/09/29 09:21:08;;;;;;;15.50;6.82;;;;;;;11.46;100.00;90981.09;5014061;28;20041;-81
2022/09/29 09:24:01;;;;;;;23.65;9.85;;;;;;;11.48;100.00;90980.75;5032027;28;20091;-80
2022/09/29 09:26:38;;;;;;;17.90;8.13;;;;;;;11.43;100.00;90978.34;5027942;28;20038;-80
2022/09/29 09:29:15;;;;;;;14.38;7.68;;;;;;;11.42;100.00;90977.59;5032584;28;20038;-79
2022/09/29 09:31:48;;;;;;;19.48;10.10;;;;;;;11.38;100.00;90981.97;5034487;28;20117;-80
2022/09/29 09:34:35;;;;;;;22.88;9.77;;;;;;;11.39;100.00;90983.50;5020983;28;20029;-78
2022/09/29 09:37:13;;;;;;;17.45;8.30;;;;;;;11.40;100.00;90979.78;5032883;28;20056;-80
2022/09/29 09:39:46;;;;;;;26.75;8.10;;;;;;;11.34;100.00;90981.06;5032470;28;20450;-78
2022/09/29 09:42:24;;;;;;;13.27;7.57;;;;;;;11.29;100.00;90976.06;5027611;28;20041;-79
2022/09/29 09:44:56;;;;;;;13.63;7.05;;;;;;;11.29;100.00;90976.06;5037962;28;20120;-80
2022/09/29 09:47:27;;;;;;;12.45;7.20;;;;;;;11.27;100.00;90978.25;5036927;28;20022;-79
2022/09/29 09:50:12;;;;;;;13.43;7.53;;;;;;;11.25;100.00;90978.56;5038549;28;20428;-79
2022/09/29 09:52:44;;;;;;;17.67;8.52;;;;;;;11.21;100.00;90972.47;5038390;28;20017;-80
2022/09/29 09:55:16;;;;;;;18.45;10.57;;;;;;;11.21;100.00;90971.69;5038226;28;20049;-78
2022/09/29 09:58:04;;;;;;;16.88;8.50;;;;;;;11.30;100.00;90974.19;5034294;28;20040;-78
2022/09/29 10:00:42;;;;;;;18.13;9.00;;;;;;;11.41;100.00;90964.81;5035478;28;20695;-80
2022/09/29 10:03:09;;;;;;;18.92;10.30;;;;;;;11.62;100.00;90964.72;5032287;28;20037;-79
2022/09/29 10:05:47;;;;;;;18.50;10.57;;;;;;;11.82;100.00;90961.19;5064708;28;20103;-80
2022/09/29 10:08:37;;;;;;;20.73;12.30;;;;;;;12.08;100.00;90960.06;5036433;28;20037;-80
2022/09/29 10:11:24;;;;;;;16.17;9.85;;;;;;;12.29;100.00;90952.81;5036954;28;20029;-80
2022/09/29 10:14:00;;;;;;;19.95;10.35;;;;;;;12.61;100.00;90955.53;5035812;28;20053;-79
2022/09/29 10:16:35;;;;;;;17.00;9.85;;;;;;;12.88;100.00;90953.97;5034197;28;20034;-80
2022/09/29 10:19:01;;;;;;;15.93;9.77;;;;;;;13.19;100.00;90951.69;5035387;28;20044;-80
2022/09/29 10:21:43;;;;;;;16.48;9.15;;;;;;;13.05;100.00;90942.38;5032850;28;20495;-80
2022/09/29 10:24:26;;;;;;;18.02;10.40;;;;;;;13.15;100.00;90945.59;5034977;28;20116;-80
2022/09/29 10:26:54;;;;;;;15.98;10.43;;;;;;;13.08;100.00;90949.59;5035039;28;20485;-81
2022/09/29 10:29:22;;;;;;;13.40;8.32;;;;;;;12.98;100.00;90947.44;5035055;28;20037;-81
2022/09/29 10:31:59;;;;;;;304.80;13.50;;;;;;;12.71;100.00;90941.91;5034216;28;20033;-79
2022/09/29 10:34:27;;;;;;;60.03;10.27;;;;;;;12.83;100.00;90940.31;5035772;28;20068;-78
2022/09/29 10:37:02;;;;;;;69.53;10.90;;;;;;;12.93;100.00;90944.31;5054198;28;20025;-78
2022/09/29 10:39:39;;;;;;;48.85;8.23;;;;;;;12.94;100.00;90953.72;5034211;28;20034;-80
2022/09/29 10:42:30;;;;;;;470.38;19.80;;;;;;;12.84;100.00;90947.09;5034780;28;20132;-79
2022/09/29 10:45:21;;;;;;;59.80;12.13;;;;;;;12.91;100.00;90942.78;5030900;28;20038;-80
2022/09/29 10:47:56;;;;;;;125.47;12.48;;;;;;;13.23;100.00;90939.41;5034247;28;20164;-80
2022/09/29 10:50:25;;;;;;;16.52;10.30;;;;;;;13.35;100.00;90934.09;5036884;28;20032;-79
2022/09/29 10:52:59;;;;;;;16.83;9.45;;;;;;;13.69;100.00;90931.84;5018188;28;20108;-80
2022/09/29 10:55:46;;;;;;;14.32;8.82;;;;;;;14.22;97.73;90931.44;5025678;28;20042;-78
2022/09/29 10:58:29;;;;;;;22.45;9.85;;;;;;;14.47;99.36;90935.31;5054725;28;20029;-79
2022/09/29 11:01:09;;;;;;;21.75;9.88;;;;;;;14.03;99.67;90934.84;5032208;28;20069;-80
2022/09/29 11:03:38;;;;;;;19.55;11.45;;;;;;;14.22;97.68;90937.47;5034555;28;20630;-80
2022/09/29 11:06:12;;;;;;;15.07;9.48;;;;;;;13.98;100.00;90935.09;5034176;28;20436;-80
2022/09/29 11:09:01;;;;;;;19.48;9.68;;;;;;;14.01;100.00;90931.78;5030515;28;20025;-80
2022/09/29 11:11:35;;;;;;;23.63;11.40;;;;;;;14.00;100.00;90933.63;5017466;28;20041;-80
2022/09/29 11:14:00;;;;;;;24.45;11.40;;;;;;;13.81;100.00;90939.63;5024736;28;20543;-80
2022/09/29 11:16:36;;;;;;;17.20;9.57;;;;;;;13.65;99.29;90946.78;5033220;28;20116;-78
2022/09/29 11:19:09;;;;;;;14.13;6.97;;;;;;;13.51;100.00;90948.00;5033946;28;20503;-79
2022/09/29 11:21:41;;;;;;;16.33;8.63;;;;;;;13.52;100.00;90941.63;5032041;28;20511;-79
2022/09/29 11:24:46;;;;;;;15.35;8.48;;;;;;;13.51;99.98;90948.00;5034279;28;20043;-79
2022/09/29 11:27:23;;;;;;;20.45;10.85;;;;;;;13.60;98.67;90939.16;5032692;28;20041;-79
2022/09/29 11:29:54;;;;;;;17.33;10.35;;;;;;;13.81;96.00;90934.38;5047605;28;20041;-78
2022/09/29 11:32:38;;;;;;;23.98;12.85;;;;;;;13.73;96.59;90937.94;5031560;28;20037;-79
2022/09/29 11:35:25;;;;;;;23.95;13.38;;;;;;;13.97;97.32;90928.31;5031638;28;20033;-79
2022/09/29 11:38:15;;;;;;;26.27;13.98;;;;;;;14.48;95.27;90928.22;5024010;28;20480;-79
2022/09/29 11:41:22;;;;;;;26.55;15.15;;;;;;;14.33;90.35;90925.28;5031363;28;20330;-79
2022/09/29 11:44:00;;;;;;;25.58;13.90;;;;;;;14.32;91.93;90923.00;5025742;28;20325;-79
2022/09/29 11:46:44;;;;;;;30.17;14.98;;;;;;;14.29;91.16;90921.06;5017509;28;20025;-79
2022/09/29 11:49:29;;;;;;;25.40;15.18;;;;;;;14.34;94.87;90918.16;5034698;28;20045;-79